Terminal Aerodrome Forecast
Issued by NWS Nashville, TN

Home | Current Version | Previous Version | Text Only | Print | Product List | Glossary On
Versions: 1 2 3 4 5 6 7 8 9 10 11 12 13 14 15 16 17 18 19 20 21 22 23
731
FTUS44 KOHX 302320
TAFCSV
TAF
KCSV 302320Z 0100/0124 25004KT P6SM VCSH BKN080
     FM010800 00000KT 5SM BR OVC060
     FM011300 21002KT P6SM OVC060=

USA.gov is the U.S. government's official web portal to all federal, state and local government web resources and services.